sensor_id;sensor_type;location;lat;lon;timestamp;P1;durP1;ratioP1;P2;durP2;ratioP2
25824;SDS011;13658;44.534;18.694;2023-02-28T00:00:29;65.13;;;35.17;;
25824;SDS011;13658;44.534;18.694;2023-02-28T00:02:55;54.13;;;29.70;;
25824;SDS011;13658;44.534;18.694;2023-02-28T00:05:24;59.67;;;30.85;;
25824;SDS011;13658;44.534;18.694;2023-02-28T00:07:51;62.80;;;32.13;;
25824;SDS011;13658;44.534;18.694;2023-02-28T00:10:21;53.25;;;30.17;;
25824;SDS011;13658;44.534;18.694;2023-02-28T00:12:53;41.35;;;23.10;;
25824;SDS011;13658;44.534;18.694;2023-02-28T00:15:22;57.03;;;31.95;;
25824;SDS011;13658;44.534;18.694;2023-02-28T00:17:48;63.40;;;34.25;;
25824;SDS011;13658;44.534;18.694;2023-02-28T00:20:15;59.92;;;33.97;;
25824;SDS011;13658;44.534;18.694;2023-02-28T00:22:42;73.90;;;39.65;;
25824;SDS011;13658;44.534;18.694;2023-02-28T00:25:11;68.07;;;36.58;;
25824;SDS011;13658;44.534;18.694;2023-02-28T00:27:40;65.97;;;37.00;;
25824;SDS011;13658;44.534;18.694;2023-02-28T00:30:07;72.90;;;38.00;;
25824;SDS011;13658;44.534;18.694;2023-02-28T00:32:39;64.47;;;36.13;;
25824;SDS011;13658;44.534;18.694;2023-02-28T00:35:06;77.68;;;39.50;;
25824;SDS011;13658;44.534;18.694;2023-02-28T00:37:33;74.45;;;39.63;;
25824;SDS011;13658;44.534;18.694;2023-02-28T00:39:59;67.43;;;36.53;;
25824;SDS011;13658;44.534;18.694;2023-02-28T00:42:25;70.38;;;37.40;;
25824;SDS011;13658;44.534;18.694;2023-02-28T00:44:51;64.38;;;35.60;;
25824;SDS011;13658;44.534;18.694;2023-02-28T00:47:17;63.00;;;35.72;;
25824;SDS011;13658;44.534;18.694;2023-02-28T00:49:43;65.45;;;36.63;;
25824;SDS011;13658;44.534;18.694;2023-02-28T00:52:09;75.55;;;39.25;;
25824;SDS011;13658;44.534;18.694;2023-02-28T00:54:35;63.95;;;35.55;;
25824;SDS011;13658;44.534;18.694;2023-02-28T00:57:01;66.22;;;35.08;;
25824;SDS011;13658;44.534;18.694;2023-02-28T00:59:27;62.58;;;35.58;;
25824;SDS011;13658;44.534;18.694;2023-02-28T01:01:53;60.90;;;33.95;;
25824;SDS011;13658;44.534;18.694;2023-02-28T01:04:20;57.50;;;32.13;;
25824;SDS011;13658;44.534;18.694;2023-02-28T01:06:46;62.25;;;34.58;;
25824;SDS011;13658;44.534;18.694;2023-02-28T01:09:12;56.75;;;31.45;;
25824;SDS011;13658;44.534;18.694;2023-02-28T01:11:41;50.13;;;29.38;;
25824;SDS011;13658;44.534;18.694;2023-02-28T01:14:12;52.33;;;29.42;;
25824;SDS011;13658;44.534;18.694;2023-02-28T01:16:39;57.90;;;30.85;;
25824;SDS011;13658;44.534;18.694;2023-02-28T01:19:05;52.97;;;30.63;;
25824;SDS011;13658;44.534;18.694;2023-02-28T01:21:31;47.97;;;29.10;;
25824;SDS011;13658;44.534;18.694;2023-02-28T01:23:57;50.47;;;28.83;;
25824;SDS011;13658;44.534;18.694;2023-02-28T01:26:24;53.45;;;29.83;;
25824;SDS011;13658;44.534;18.694;2023-02-28T01:28:50;54.05;;;30.90;;
25824;SDS011;13658;44.534;18.694;2023-02-28T01:31:17;55.92;;;29.70;;
25824;SDS011;13658;44.534;18.694;2023-02-28T01:33:45;39.50;;;23.35;;
25824;SDS011;13658;44.534;18.694;2023-02-28T01:36:12;37.67;;;20.85;;
25824;SDS011;13658;44.534;18.694;2023-02-28T01:38:45;39.47;;;22.52;;
25824;SDS011;13658;44.534;18.694;2023-02-28T01:41:16;40.15;;;22.63;;
25824;SDS011;13658;44.534;18.694;2023-02-28T01:46:14;41.05;;;23.90;;
25824;SDS011;13658;44.534;18.694;2023-02-28T01:48:48;40.92;;;23.98;;
25824;SDS011;13658;44.534;18.694;2023-02-28T01:51:22;37.10;;;22.00;;
25824;SDS011;13658;44.534;18.694;2023-02-28T01:53:53;39.30;;;22.52;;
25824;SDS011;13658;44.534;18.694;2023-02-28T01:56:40;38.65;;;22.48;;
25824;SDS011;13658;44.534;18.694;2023-02-28T01:59:14;38.65;;;23.05;;
25824;SDS011;13658;44.534;18.694;2023-02-28T02:01:46;31.83;;;19.35;;
25824;SDS011;13658;44.534;18.694;2023-02-28T02:04:12;38.30;;;22.13;;
25824;SDS011;13658;44.534;18.694;2023-02-28T02:06:42;37.17;;;21.23;;
25824;SDS011;13658;44.534;18.694;2023-02-28T02:09:11;26.48;;;16.75;;
25824;SDS011;13658;44.534;18.694;2023-02-28T02:11:38;29.63;;;18.23;;
25824;SDS011;13658;44.534;18.694;2023-02-28T02:43:52;12.75;;;8.50;;
25824;SDS011;13658;44.534;18.694;2023-02-28T02:46:34;12.50;;;8.27;;
25824;SDS011;13658;44.534;18.694;2023-02-28T02:49:08;11.93;;;8.18;;
25824;SDS011;13658;44.534;18.694;2023-02-28T02:51:38;12.52;;;8.07;;
25824;SDS011;13658;44.534;18.694;2023-02-28T02:54:08;10.77;;;7.03;;
25824;SDS011;13658;44.534;18.694;2023-02-28T02:56:48;10.43;;;7.30;;
25824;SDS011;13658;44.534;18.694;2023-02-28T02:59:17;11.75;;;7.80;;
25824;SDS011;13658;44.534;18.694;2023-02-28T03:01:57;13.40;;;8.43;;
25824;SDS011;13658;44.534;18.694;2023-02-28T03:04:27;10.90;;;7.30;;
25824;SDS011;13658;44.534;18.694;2023-02-28T03:06:58;12.35;;;7.07;;
25824;SDS011;13658;44.534;18.694;2023-02-28T03:09:25;11.48;;;7.75;;
25824;SDS011;13658;44.534;18.694;2023-02-28T03:11:52;12.57;;;7.82;;
25824;SDS011;13658;44.534;18.694;2023-02-28T03:14:38;9.60;;;7.18;;
25824;SDS011;13658;44.534;18.694;2023-02-28T03:28:08;10.98;;;7.38;;
25824;SDS011;13658;44.534;18.694;2023-02-28T03:33:26;10.93;;;7.10;;
25824;SDS011;13658;44.534;18.694;2023-02-28T03:36:16;11.32;;;7.30;;
25824;SDS011;13658;44.534;18.694;2023-02-28T03:39:05;13.15;;;7.25;;
25824;SDS011;13658;44.534;18.694;2023-02-28T03:41:35;12.70;;;7.65;;
25824;SDS011;13658;44.534;18.694;2023-02-28T03:44:19;10.60;;;6.55;;
25824;SDS011;13658;44.534;18.694;2023-02-28T03:47:12;11.55;;;7.03;;
25824;SDS011;13658;44.534;18.694;2023-02-28T03:49:54;11.40;;;7.57;;
25824;SDS011;13658;44.534;18.694;2023-02-28T03:52:37;9.98;;;6.55;;
25824;SDS011;13658;44.534;18.694;2023-02-28T03:55:10;10.20;;;6.30;;
25824;SDS011;13658;44.534;18.694;2023-02-28T03:57:40;11.98;;;7.60;;
25824;SDS011;13658;44.534;18.694;2023-02-28T04:00:26;9.38;;;6.05;;
25824;SDS011;13658;44.534;18.694;2023-02-28T04:02:56;7.78;;;5.47;;
25824;SDS011;13658;44.534;18.694;2023-02-28T04:05:22;10.60;;;7.03;;
25824;SDS011;13658;44.534;18.694;2023-02-28T04:07:49;11.02;;;6.95;;
25824;SDS011;13658;44.534;18.694;2023-02-28T04:10:15;10.88;;;7.32;;
25824;SDS011;13658;44.534;18.694;2023-02-28T04:12:42;10.32;;;7.10;;
25824;SDS011;13658;44.534;18.694;2023-02-28T04:15:08;10.68;;;7.00;;
25824;SDS011;13658;44.534;18.694;2023-02-28T04:17:35;11.65;;;8.40;;
25824;SDS011;13658;44.534;18.694;2023-02-28T04:20:02;11.95;;;7.97;;
25824;SDS011;13658;44.534;18.694;2023-02-28T04:22:29;13.02;;;8.60;;
25824;SDS011;13658;44.534;18.694;2023-02-28T04:24:54;14.52;;;8.82;;
25824;SDS011;13658;44.534;18.694;2023-02-28T04:27:21;12.68;;;8.23;;
25824;SDS011;13658;44.534;18.694;2023-02-28T04:29:47;13.60;;;8.48;;
25824;SDS011;13658;44.534;18.694;2023-02-28T04:32:13;13.52;;;8.60;;
25824;SDS011;13658;44.534;18.694;2023-02-28T04:34:40;13.73;;;8.73;;
25824;SDS011;13658;44.534;18.694;2023-02-28T04:37:06;14.20;;;8.52;;
25824;SDS011;13658;44.534;18.694;2023-02-28T04:39:34;14.18;;;8.85;;
25824;SDS011;13658;44.534;18.694;2023-02-28T04:42:01;15.98;;;9.10;;
25824;SDS011;13658;44.534;18.694;2023-02-28T04:44:27;16.73;;;9.82;;
25824;SDS011;13658;44.534;18.694;2023-02-28T04:46:52;16.63;;;10.10;;
25824;SDS011;13658;44.534;18.694;2023-02-28T04:49:18;16.70;;;10.43;;
25824;SDS011;13658;44.534;18.694;2023-02-28T04:51:44;18.65;;;10.95;;
25824;SDS011;13658;44.534;18.694;2023-02-28T04:54:10;19.80;;;11.82;;
25824;SDS011;13658;44.534;18.694;2023-02-28T04:56:38;20.15;;;12.38;;
25824;SDS011;13658;44.534;18.694;2023-02-28T04:59:04;20.88;;;12.85;;
25824;SDS011;13658;44.534;18.694;2023-02-28T05:01:32;20.67;;;13.05;;
25824;SDS011;13658;44.534;18.694;2023-02-28T05:04:00;20.92;;;13.25;;
25824;SDS011;13658;44.534;18.694;2023-02-28T05:06:28;23.42;;;13.48;;
25824;SDS011;13658;44.534;18.694;2023-02-28T05:08:55;21.88;;;12.73;;
25824;SDS011;13658;44.534;18.694;2023-02-28T05:11:26;22.13;;;13.93;;
25824;SDS011;13658;44.534;18.694;2023-02-28T05:14:03;21.33;;;13.77;;
25824;SDS011;13658;44.534;18.694;2023-02-28T05:16:31;20.10;;;12.38;;
25824;SDS011;13658;44.534;18.694;2023-02-28T05:18:57;22.65;;;14.85;;
25824;SDS011;13658;44.534;18.694;2023-02-28T05:23:54;21.98;;;13.57;;
25824;SDS011;13658;44.534;18.694;2023-02-28T05:26:22;21.55;;;13.70;;
25824;SDS011;13658;44.534;18.694;2023-02-28T05:28:48;25.17;;;13.55;;
25824;SDS011;13658;44.534;18.694;2023-02-28T05:31:14;25.10;;;15.30;;
25824;SDS011;13658;44.534;18.694;2023-02-28T05:33:40;25.15;;;15.93;;
25824;SDS011;13658;44.534;18.694;2023-02-28T05:36:06;24.10;;;14.43;;
25824;SDS011;13658;44.534;18.694;2023-02-28T05:38:32;26.02;;;15.32;;
25824;SDS011;13658;44.534;18.694;2023-02-28T05:40:58;25.80;;;15.13;;
25824;SDS011;13658;44.534;18.694;2023-02-28T05:43:24;28.70;;;15.80;;
25824;SDS011;13658;44.534;18.694;2023-02-28T05:45:50;30.23;;;17.33;;
25824;SDS011;13658;44.534;18.694;2023-02-28T05:48:16;28.27;;;16.83;;
25824;SDS011;13658;44.534;18.694;2023-02-28T05:50:43;28.20;;;16.95;;
25824;SDS011;13658;44.534;18.694;2023-02-28T05:53:11;31.20;;;18.52;;
25824;SDS011;13658;44.534;18.694;2023-02-28T05:55:37;32.58;;;17.95;;
25824;SDS011;13658;44.534;18.694;2023-02-28T05:58:03;42.67;;;23.13;;
25824;SDS011;13658;44.534;18.694;2023-02-28T06:00:29;51.67;;;29.92;;
25824;SDS011;13658;44.534;18.694;2023-02-28T06:02:55;33.30;;;18.48;;
25824;SDS011;13658;44.534;18.694;2023-02-28T06:05:23;37.15;;;19.00;;
25824;SDS011;13658;44.534;18.694;2023-02-28T06:07:49;35.10;;;19.23;;
25824;SDS011;13658;44.534;18.694;2023-02-28T06:10:15;32.08;;;18.70;;
25824;SDS011;13658;44.534;18.694;2023-02-28T06:12:41;31.48;;;18.00;;
25824;SDS011;13658;44.534;18.694;2023-02-28T06:15:10;32.17;;;17.92;;
25824;SDS011;13658;44.534;18.694;2023-02-28T06:17:39;32.97;;;18.90;;
25824;SDS011;13658;44.534;18.694;2023-02-28T06:20:10;43.58;;;23.05;;
25824;SDS011;13658;44.534;18.694;2023-02-28T06:22:38;52.55;;;27.70;;
25824;SDS011;13658;44.534;18.694;2023-02-28T06:25:05;44.90;;;25.13;;
25824;SDS011;13658;44.534;18.694;2023-02-28T06:27:32;56.83;;;28.58;;
25824;SDS011;13658;44.534;18.694;2023-02-28T06:29:59;42.63;;;22.63;;
25824;SDS011;13658;44.534;18.694;2023-02-28T06:32:25;47.00;;;25.95;;
25824;SDS011;13658;44.534;18.694;2023-02-28T06:34:51;49.17;;;24.73;;
25824;SDS011;13658;44.534;18.694;2023-02-28T06:37:18;50.47;;;26.95;;
25824;SDS011;13658;44.534;18.694;2023-02-28T06:39:44;49.97;;;26.55;;
25824;SDS011;13658;44.534;18.694;2023-02-28T06:42:10;47.05;;;24.15;;
25824;SDS011;13658;44.534;18.694;2023-02-28T06:44:36;49.35;;;27.30;;
